sensor_id;sensor_type;location;lat;lon;timestamp;P1;durP1;ratioP1;P2;durP2;ratioP2
18834;SDS011;9546;59.262;18.036;2022-09-09T00:00:56;2.67;;;0.80;;
18834;SDS011;9546;59.262;18.036;2022-09-09T00:03:27;2.40;;;0.85;;
18834;SDS011;9546;59.262;18.036;2022-09-09T00:05:56;5.20;;;1.10;;
18834;SDS011;9546;59.262;18.036;2022-09-09T00:08:35;0.63;;;0.55;;
18834;SDS011;9546;59.262;18.036;2022-09-09T00:11:02;0.95;;;0.70;;
18834;SDS011;9546;59.262;18.036;2022-09-09T00:13:32;1.65;;;0.85;;
18834;SDS011;9546;59.262;18.036;2022-09-09T00:16:02;0.93;;;0.57;;
18834;SDS011;9546;59.262;18.036;2022-09-09T00:18:31;0.60;;;0.60;;
18834;SDS011;9546;59.262;18.036;2022-09-09T00:21:05;0.75;;;0.50;;
18834;SDS011;9546;59.262;18.036;2022-09-09T00:23:33;1.02;;;0.70;;
18834;SDS011;9546;59.262;18.036;2022-09-09T00:26:05;4.93;;;0.80;;
18834;SDS011;9546;59.262;18.036;2022-09-09T00:28:38;0.93;;;0.80;;
18834;SDS011;9546;59.262;18.036;2022-09-09T00:31:08;0.57;;;0.47;;
18834;SDS011;9546;59.262;18.036;2022-09-09T00:33:37;1.35;;;0.63;;
18834;SDS011;9546;59.262;18.036;2022-09-09T00:36:07;2.60;;;0.70;;
18834;SDS011;9546;59.262;18.036;2022-09-09T00:38:36;5.72;;;0.70;;
18834;SDS011;9546;59.262;18.036;2022-09-09T00:41:05;1.10;;;0.57;;
18834;SDS011;9546;59.262;18.036;2022-09-09T00:43:35;2.75;;;0.50;;
18834;SDS011;9546;59.262;18.036;2022-09-09T00:48:47;2.00;;;0.60;;
18834;SDS011;9546;59.262;18.036;2022-09-09T00:51:19;3.83;;;0.65;;
18834;SDS011;9546;59.262;18.036;2022-09-09T00:53:57;0.98;;;0.70;;
18834;SDS011;9546;59.262;18.036;2022-09-09T00:56:26;0.60;;;0.40;;
18834;SDS011;9546;59.262;18.036;2022-09-09T00:59:02;0.50;;;0.32;;
18834;SDS011;9546;59.262;18.036;2022-09-09T01:01:33;1.63;;;0.65;;
18834;SDS011;9546;59.262;18.036;2022-09-09T01:04:03;0.80;;;0.50;;
18834;SDS011;9546;59.262;18.036;2022-09-09T01:06:35;0.40;;;0.40;;
18834;SDS011;9546;59.262;18.036;2022-09-09T01:27:55;0.85;;;0.57;;
18834;SDS011;9546;59.262;18.036;2022-09-09T01:30:22;1.60;;;0.50;;
18834;SDS011;9546;59.262;18.036;2022-09-09T01:32:50;0.70;;;0.50;;
18834;SDS011;9546;59.262;18.036;2022-09-09T01:35:19;0.60;;;0.60;;
18834;SDS011;9546;59.262;18.036;2022-09-09T01:37:50;0.65;;;0.60;;
18834;SDS011;9546;59.262;18.036;2022-09-09T01:40:17;0.63;;;0.63;;
18834;SDS011;9546;59.262;18.036;2022-09-09T01:42:44;0.65;;;0.55;;
18834;SDS011;9546;59.262;18.036;2022-09-09T01:45:12;0.82;;;0.60;;
18834;SDS011;9546;59.262;18.036;2022-09-09T01:47:38;0.52;;;0.50;;
18834;SDS011;9546;59.262;18.036;2022-09-09T01:50:06;1.00;;;0.55;;
18834;SDS011;9546;59.262;18.036;2022-09-09T01:52:34;0.50;;;0.50;;
18834;SDS011;9546;59.262;18.036;2022-09-09T01:55:01;0.88;;;0.55;;
18834;SDS011;9546;59.262;18.036;2022-09-09T01:57:30;2.45;;;0.63;;
18834;SDS011;9546;59.262;18.036;2022-09-09T02:00:00;0.80;;;0.60;;
18834;SDS011;9546;59.262;18.036;2022-09-09T02:02:32;0.77;;;0.60;;
18834;SDS011;9546;59.262;18.036;2022-09-09T02:05:03;0.50;;;0.50;;
18834;SDS011;9546;59.262;18.036;2022-09-09T02:07:36;1.05;;;0.60;;
18834;SDS011;9546;59.262;18.036;2022-09-09T02:10:05;1.17;;;0.80;;
18834;SDS011;9546;59.262;18.036;2022-09-09T02:12:35;1.45;;;0.60;;
18834;SDS011;9546;59.262;18.036;2022-09-09T02:15:03;0.85;;;0.60;;
18834;SDS011;9546;59.262;18.036;2022-09-09T02:17:33;0.60;;;0.47;;
18834;SDS011;9546;59.262;18.036;2022-09-09T02:20:02;0.80;;;0.70;;
18834;SDS011;9546;59.262;18.036;2022-09-09T02:22:31;2.72;;;0.70;;
18834;SDS011;9546;59.262;18.036;2022-09-09T02:24:59;1.20;;;0.77;;
18834;SDS011;9546;59.262;18.036;2022-09-09T02:27:26;0.80;;;0.65;;
18834;SDS011;9546;59.262;18.036;2022-09-09T02:29:53;1.80;;;0.60;;
18834;SDS011;9546;59.262;18.036;2022-09-09T02:32:22;1.50;;;0.85;;
18834;SDS011;9546;59.262;18.036;2022-09-09T02:34:51;1.25;;;0.50;;
18834;SDS011;9546;59.262;18.036;2022-09-09T02:37:22;2.55;;;0.60;;
18834;SDS011;9546;59.262;18.036;2022-09-09T02:39:50;4.40;;;0.80;;
18834;SDS011;9546;59.262;18.036;2022-09-09T02:42:17;1.13;;;0.80;;
18834;SDS011;9546;59.262;18.036;2022-09-09T02:44:44;2.15;;;0.60;;
18834;SDS011;9546;59.262;18.036;2022-09-09T02:47:16;1.02;;;0.70;;
18834;SDS011;9546;59.262;18.036;2022-09-09T02:49:45;0.88;;;0.60;;
18834;SDS011;9546;59.262;18.036;2022-09-09T02:52:18;2.25;;;0.90;;
18834;SDS011;9546;59.262;18.036;2022-09-09T02:54:46;2.50;;;0.82;;
18834;SDS011;9546;59.262;18.036;2022-09-09T02:57:16;2.33;;;0.70;;
18834;SDS011;9546;59.262;18.036;2022-09-09T02:59:43;3.70;;;0.80;;
18834;SDS011;9546;59.262;18.036;2022-09-09T03:02:10;1.50;;;1.05;;
18834;SDS011;9546;59.262;18.036;2022-09-09T03:04:38;1.75;;;0.82;;
18834;SDS011;9546;59.262;18.036;2022-09-09T03:28:00;2.28;;;0.90;;
18834;SDS011;9546;59.262;18.036;2022-09-09T03:30:27;2.38;;;0.80;;
18834;SDS011;9546;59.262;18.036;2022-09-09T03:32:55;2.88;;;0.75;;
18834;SDS011;9546;59.262;18.036;2022-09-09T03:35:22;3.28;;;0.80;;
18834;SDS011;9546;59.262;18.036;2022-09-09T03:37:49;1.75;;;0.85;;
18834;SDS011;9546;59.262;18.036;2022-09-09T03:40:16;1.27;;;0.88;;
18834;SDS011;9546;59.262;18.036;2022-09-09T03:42:43;0.90;;;0.80;;
18834;SDS011;9546;59.262;18.036;2022-09-09T03:45:11;0.50;;;0.50;;
18834;SDS011;9546;59.262;18.036;2022-09-09T03:47:37;0.60;;;0.60;;
18834;SDS011;9546;59.262;18.036;2022-09-09T03:50:04;2.53;;;0.90;;
18834;SDS011;9546;59.262;18.036;2022-09-09T03:52:34;6.32;;;1.00;;
18834;SDS011;9546;59.262;18.036;2022-09-09T03:55:00;1.52;;;0.60;;
18834;SDS011;9546;59.262;18.036;2022-09-09T03:57:28;2.80;;;0.70;;
18834;SDS011;9546;59.262;18.036;2022-09-09T03:59:55;3.08;;;0.80;;
18834;SDS011;9546;59.262;18.036;2022-09-09T04:02:24;2.90;;;0.70;;
18834;SDS011;9546;59.262;18.036;2022-09-09T04:04:51;2.15;;;0.77;;
18834;SDS011;9546;59.262;18.036;2022-09-09T04:07:17;2.72;;;0.70;;
18834;SDS011;9546;59.262;18.036;2022-09-09T04:09:45;1.45;;;0.93;;
18834;SDS011;9546;59.262;18.036;2022-09-09T04:12:11;2.72;;;0.70;;
18834;SDS011;9546;59.262;18.036;2022-09-09T04:14:39;2.40;;;0.80;;
18834;SDS011;9546;59.262;18.036;2022-09-09T04:17:06;4.22;;;0.68;;
18834;SDS011;9546;59.262;18.036;2022-09-09T04:19:34;2.60;;;0.90;;
18834;SDS011;9546;59.262;18.036;2022-09-09T04:22:01;1.58;;;0.63;;
18834;SDS011;9546;59.262;18.036;2022-09-09T04:24:28;0.52;;;0.47;;
18834;SDS011;9546;59.262;18.036;2022-09-09T04:26:54;5.25;;;0.85;;
18834;SDS011;9546;59.262;18.036;2022-09-09T04:29:21;4.38;;;1.20;;
18834;SDS011;9546;59.262;18.036;2022-09-09T04:31:48;8.07;;;1.08;;
18834;SDS011;9546;59.262;18.036;2022-09-09T04:34:15;4.25;;;1.00;;
18834;SDS011;9546;59.262;18.036;2022-09-09T04:36:43;1.75;;;1.00;;
18834;SDS011;9546;59.262;18.036;2022-09-09T04:39:09;5.03;;;1.33;;
18834;SDS011;9546;59.262;18.036;2022-09-09T04:41:36;3.78;;;0.90;;
18834;SDS011;9546;59.262;18.036;2022-09-09T04:44:03;2.95;;;0.50;;
18834;SDS011;9546;59.262;18.036;2022-09-09T04:49:31;2.67;;;0.63;;
18834;SDS011;9546;59.262;18.036;2022-09-09T04:52:22;3.13;;;0.73;;
18834;SDS011;9546;59.262;18.036;2022-09-09T04:54:52;2.90;;;0.98;;
18834;SDS011;9546;59.262;18.036;2022-09-09T04:57:27;0.73;;;0.60;;
18834;SDS011;9546;59.262;18.036;2022-09-09T05:00:00;4.70;;;0.80;;
18834;SDS011;9546;59.262;18.036;2022-09-09T05:02:31;6.97;;;0.90;;
18834;SDS011;9546;59.262;18.036;2022-09-09T05:05:05;3.90;;;0.82;;
18834;SDS011;9546;59.262;18.036;2022-09-09T05:28:38;5.45;;;1.15;;
18834;SDS011;9546;59.262;18.036;2022-09-09T05:31:05;3.75;;;0.90;;
18834;SDS011;9546;59.262;18.036;2022-09-09T05:33:33;1.02;;;0.52;;
18834;SDS011;9546;59.262;18.036;2022-09-09T05:36:00;3.17;;;0.75;;
18834;SDS011;9546;59.262;18.036;2022-09-09T05:38:28;3.67;;;0.85;;
18834;SDS011;9546;59.262;18.036;2022-09-09T05:40:55;3.08;;;0.60;;
18834;SDS011;9546;59.262;18.036;2022-09-09T05:43:22;1.67;;;0.70;;
18834;SDS011;9546;59.262;18.036;2022-09-09T05:46:00;1.60;;;1.05;;
18834;SDS011;9546;59.262;18.036;2022-09-09T05:48:28;5.13;;;0.80;;
18834;SDS011;9546;59.262;18.036;2022-09-09T05:50:54;0.93;;;0.70;;
18834;SDS011;9546;59.262;18.036;2022-09-09T05:53:21;1.38;;;0.63;;
18834;SDS011;9546;59.262;18.036;2022-09-09T05:55:48;2.58;;;0.70;;
18834;SDS011;9546;59.262;18.036;2022-09-09T05:58:15;5.25;;;0.88;;
18834;SDS011;9546;59.262;18.036;2022-09-09T06:00:42;2.58;;;0.60;;
18834;SDS011;9546;59.262;18.036;2022-09-09T06:03:11;5.75;;;0.82;;
18834;SDS011;9546;59.262;18.036;2022-09-09T06:05:38;5.00;;;0.70;;
18834;SDS011;9546;59.262;18.036;2022-09-09T06:08:05;2.35;;;0.73;;
18834;SDS011;9546;59.262;18.036;2022-09-09T06:10:32;2.00;;;0.60;;
18834;SDS011;9546;59.262;18.036;2022-09-09T06:12:59;6.10;;;0.85;;
18834;SDS011;9546;59.262;18.036;2022-09-09T06:15:25;2.90;;;0.98;;
18834;SDS011;9546;59.262;18.036;2022-09-09T06:17:55;4.43;;;0.70;;
18834;SDS011;9546;59.262;18.036;2022-09-09T06:20:23;8.98;;;0.95;;
18834;SDS011;9546;59.262;18.036;2022-09-09T06:22:50;4.57;;;1.00;;
18834;SDS011;9546;59.262;18.036;2022-09-09T06:25:17;3.00;;;0.63;;
18834;SDS011;9546;59.262;18.036;2022-09-09T06:27:47;3.17;;;0.70;;
18834;SDS011;9546;59.262;18.036;2022-09-09T06:30:14;2.92;;;0.77;;
18834;SDS011;9546;59.262;18.036;2022-09-09T06:32:42;4.72;;;0.90;;
18834;SDS011;9546;59.262;18.036;2022-09-09T06:35:09;3.13;;;1.23;;
18834;SDS011;9546;59.262;18.036;2022-09-09T06:37:37;5.55;;;0.70;;
18834;SDS011;9546;59.262;18.036;2022-09-09T06:40:04;3.00;;;0.80;;
18834;SDS011;9546;59.262;18.036;2022-09-09T06:42:31;4.32;;;0.95;;
18834;SDS011;9546;59.262;18.036;2022-09-09T06:44:58;3.38;;;0.70;;
18834;SDS011;9546;59.262;18.036;2022-09-09T06:47:26;11.50;;;1.02;;
18834;SDS011;9546;59.262;18.036;2022-09-09T06:49:55;8.13;;;0.70;;
18834;SDS011;9546;59.262;18.036;2022-09-09T06:52:21;6.90;;;0.93;;
18834;SDS011;9546;59.262;18.036;2022-09-09T06:54:51;5.20;;;0.98;;
18834;SDS011;9546;59.262;18.036;2022-09-09T06:57:18;8.50;;;1.30;;
18834;SDS011;9546;59.262;18.036;2022-09-09T06:59:45;9.73;;;0.93;;
18834;SDS011;9546;59.262;18.036;2022-09-09T07:02:11;5.55;;;0.70;;
18834;SDS011;9546;59.262;18.036;2022-09-09T07:04:38;2.40;;;0.50;;
18834;SDS011;9546;59.262;18.036;2022-09-09T07:07:05;1.50;;;0.70;;
18834;SDS011;9546;59.262;18.036;2022-09-09T07:28:01;4.43;;;0.90;;
18834;SDS011;9546;59.262;18.036;2022-09-09T07:30:28;2.05;;;0.82;;
18834;SDS011;9546;59.262;18.036;2022-09-09T07:32:56;2.42;;;0.90;;
18834;SDS011;9546;59.262;18.036;2022-09-09T07:35:25;1.92;;;1.10;;
18834;SDS011;9546;59.262;18.036;2022-09-09T07:37:52;4.60;;;1.60;;
18834;SDS011;9546;59.262;18.036;2022-09-09T07:40:19;1.65;;;0.60;;
18834;SDS011;9546;59.262;18.036;2022-09-09T07:42:49;2.72;;;0.75;;
18834;SDS011;9546;59.262;18.036;2022-09-09T07:45:20;0.98;;;0.60;;
18834;SDS011;9546;59.262;18.036;2022-09-09T07:47:50;1.80;;;0.68;;
18834;SDS011;9546;59.262;18.036;2022-09-09T07:50:22;2.65;;;0.73;;
18834;SDS011;9546;59.262;18.036;2022-09-09T07:53:04;1.35;;;0.70;;
18834;SDS011;9546;59.262;18.036;2022-09-09T07:55:31;5.75;;;0.93;;
18834;SDS011;9546;59.262;18.036;2022-09-09T07:58:05;5.70;;;0.82;;
18834;SDS011;9546;59.262;18.036;2022-09-09T08:00:59;3.63;;;0.60;;
18834;SDS011;9546;59.262;18.036;2022-09-09T08:03:27;5.03;;;0.90;;
18834;SDS011;9546;59.262;18.036;2022-09-09T08:05:59;6.07;;;0.90;;
18834;SDS011;9546;59.262;18.036;2022-09-09T08:08:26;1.48;;;0.70;;
18834;SDS011;9546;59.262;18.036;2022-09-09T08:10:53;6.07;;;0.82;;
18834;SDS011;9546;59.262;18.036;2022-09-09T08:13:20;2.30;;;0.63;;
18834;SDS011;9546;59.262;18.036;2022-09-09T08:15:56;7.07;;;1.05;;
18834;SDS011;9546;59.262;18.036;2022-09-09T08:18:30;5.43;;;0.70;;
18834;SDS011;9546;59.262;18.036;2022-09-09T08:20:57;1.08;;;0.85;;
18834;SDS011;9546;59.262;18.036;2022-09-09T08:23:33;3.92;;;0.73;;
18834;SDS011;9546;59.262;18.036;2022-09-09T08:26:07;2.67;;;0.73;;
18834;SDS011;9546;59.262;18.036;2022-09-09T08:28:34;12.43;;;1.10;;
18834;SDS011;9546;59.262;18.036;2022-09-09T08:31:14;6.07;;;0.80;;
18834;SDS011;9546;59.262;18.036;2022-09-09T08:33:42;4.07;;;0.80;;
18834;SDS011;9546;59.262;18.036;2022-09-09T08:36:12;4.70;;;0.88;;
18834;SDS011;9546;59.262;18.036;2022-09-09T08:38:47;3.50;;;0.65;;
18834;SDS011;9546;59.262;18.036;2022-09-09T08:41:35;2.28;;;0.90;;
18834;SDS011;9546;59.262;18.036;2022-09-09T08:44:04;8.40;;;0.90;;
18834;SDS011;9546;59.262;18.036;2022-09-09T08:46:38;6.50;;;1.13;;
18834;SDS011;9546;59.262;18.036;2022-09-09T08:49:13;5.90;;;0.80;;
18834;SDS011;9546;59.262;18.036;2022-09-09T08:51:40;3.92;;;0.80;;
18834;SDS011;9546;59.262;18.036;2022-09-09T08:54:07;1.80;;;0.63;;
18834;SDS011;9546;59.262;18.036;2022-09-09T08:56:35;7.18;;;1.20;;
18834;SDS011;9546;59.262;18.036;2022-09-09T08:59:03;5.85;;;0.90;;
18834;SDS011;9546;59.262;18.036;2022-09-09T09:01:41;2.47;;;0.80;;
18834;SDS011;9546;59.262;18.036;2022-09-09T09:04:20;7.15;;;0.80;;
18834;SDS011;9546;59.262;18.036;2022-09-09T09:06:50;4.03;;;0.60;;
18834;SDS011;9546;59.262;18.036;2022-09-09T09:28:22;2.42;;;0.80;;
18834;SDS011;9546;59.262;18.036;2022-09-09T09:30:50;3.55;;;0.70;;
18834;SDS011;9546;59.262;18.036;2022-09-09T09:33:20;1.83;;;1.00;;
18834;SDS011;9546;59.262;18.036;2022-09-09T09:35:49;4.70;;;0.80;;
18834;SDS011;9546;59.262;18.036;2022-09-09T09:38:22;4.43;;;0.80;;
18834;SDS011;9546;59.262;18.036;2022-09-09T09:41:02;5.68;;;1.00;;
18834;SDS011;9546;59.262;18.036;2022-09-09T09:43:34;9.10;;;1.00;;
18834;SDS011;9546;59.262;18.036;2022-09-09T09:46:04;3.22;;;1.10;;
18834;SDS011;9546;59.262;18.036;2022-09-09T09:48:31;1.90;;;0.93;;
18834;SDS011;9546;59.262;18.036;2022-09-09T09:51:00;1.83;;;1.05;;
18834;SDS011;9546;59.262;18.036;2022-09-09T09:53:28;4.68;;;1.00;;
18834;SDS011;9546;59.262;18.036;2022-09-09T09:55:59;2.72;;;0.60;;
18834;SDS011;9546;59.262;18.036;2022-09-09T09:58:30;4.10;;;0.88;;
18834;SDS011;9546;59.262;18.036;2022-09-09T10:01:02;2.72;;;0.82;;
18834;SDS011;9546;59.262;18.036;2022-09-09T10:03:54;4.45;;;1.08;;
18834;SDS011;9546;59.262;18.036;2022-09-09T10:06:34;3.33;;;0.80;;
18834;SDS011;9546;59.262;18.036;2022-09-09T10:09:20;1.48;;;0.60;;
18834;SDS011;9546;59.262;18.036;2022-09-09T10:11:49;4.88;;;0.88;;
18834;SDS011;9546;59.262;18.036;2022-09-09T10:14:19;3.72;;;0.82;;
18834;SDS011;9546;59.262;18.036;2022-09-09T10:16:55;15.32;;;1.35;;
18834;SDS011;9546;59.262;18.036;2022-09-09T10:19:29;2.67;;;0.93;;
18834;SDS011;9546;59.262;18.036;2022-09-09T10:22:01;1.35;;;0.70;;
18834;SDS011;9546;59.262;18.036;2022-09-09T10:27:12;3.75;;;0.80;;
18834;SDS011;9546;59.262;18.036;2022-09-09T10:29:47;1.52;;;0.70;;
18834;SDS011;9546;59.262;18.036;2022-09-09T10:32:27;3.10;;;0.80;;
18834;SDS011;9546;59.262;18.036;2022-09-09T10:35:02;1.92;;;0.90;;
18834;SDS011;9546;59.262;18.036;2022-09-09T10:37:38;6.40;;;0.90;;
18834;SDS011;9546;59.262;18.036;2022-09-09T10:40:14;2.55;;;0.70;;
18834;SDS011;9546;59.262;18.036;2022-09-09T10:42:44;5.88;;;0.90;;
18834;SDS011;9546;59.262;18.036;2022-09-09T10:45:15;4.38;;;0.90;;
18834;SDS011;9546;59.262;18.036;2022-09-09T10:47:49;3.40;;;0.68;;
18834;SDS011;9546;59.262;18.036;2022-09-09T10:50:25;5.30;;;0.80;;
18834;SDS011;9546;59.262;18.036;2022-09-09T10:53:02;4.57;;;0.88;;
18834;SDS011;9546;59.262;18.036;2022-09-09T10:55:33;2.63;;;0.80;;
18834;SDS011;9546;59.262;18.036;2022-09-09T10:58:04;2.40;;;0.80;;
18834;SDS011;9546;59.262;18.036;2022-09-09T11:00:36;3.42;;;1.00;;
18834;SDS011;9546;59.262;18.036;2022-09-09T11:03:08;2.40;;;0.70;;
18834;SDS011;9546;59.262;18.036;2022-09-09T11:05:40;0.93;;;0.60;;
18834;SDS011;9546;59.262;18.036;2022-09-09T11:28:40;2.15;;;0.98;;
18834;SDS011;9546;59.262;18.036;2022-09-09T11:34:12;2.95;;;0.70;;
18834;SDS011;9546;59.262;18.036;2022-09-09T11:36:49;2.00;;;0.73;;
18834;SDS011;9546;59.262;18.036;2022-09-09T11:39:35;1.20;;;0.90;;
18834;SDS011;9546;59.262;18.036;2022-09-09T11:42:20;2.20;;;1.00;;
18834;SDS011;9546;59.262;18.036;2022-09-09T11:44:50;1.05;;;0.80;;
18834;SDS011;9546;59.262;18.036;2022-09-09T11:47:20;1.70;;;0.80;;
18834;SDS011;9546;59.262;18.036;2022-09-09T11:49:48;1.02;;;0.93;;
18834;SDS011;9546;59.262;18.036;2022-09-09T11:52:20;1.88;;;0.85;;
18834;SDS011;9546;59.262;18.036;2022-09-09T11:54:48;1.80;;;1.00;;
18834;SDS011;9546;59.262;18.036;2022-09-09T11:57:25;1.77;;;1.10;;
18834;SDS011;9546;59.262;18.036;2022-09-09T11:59:57;2.13;;;0.80;;
18834;SDS011;9546;59.262;18.036;2022-09-09T12:02:28;2.28;;;1.10;;
18834;SDS011;9546;59.262;18.036;2022-09-09T12:04:58;3.83;;;1.33;;
18834;SDS011;9546;59.262;18.036;2022-09-09T12:07:30;3.95;;;1.00;;
18834;SDS011;9546;59.262;18.036;2022-09-09T12:09:58;2.03;;;1.17;;
18834;SDS011;9546;59.262;18.036;2022-09-09T12:12:29;2.35;;;1.30;;
18834;SDS011;9546;59.262;18.036;2022-09-09T12:14:59;1.45;;;0.90;;
18834;SDS011;9546;59.262;18.036;2022-09-09T12:17:27;3.78;;;1.00;;
18834;SDS011;9546;59.262;18.036;2022-09-09T12:20:03;3.17;;;1.20;;
18834;SDS011;9546;59.262;18.036;2022-09-09T12:22:35;1.63;;;0.95;;
18834;SDS011;9546;59.262;18.036;2022-09-09T12:25:07;2.35;;;1.13;;
18834;SDS011;9546;59.262;18.036;2022-09-09T12:27:40;3.08;;;0.98;;
18834;SDS011;9546;59.262;18.036;2022-09-09T12:30:15;2.83;;;1.23;;
18834;SDS011;9546;59.262;18.036;2022-09-09T12:32:58;9.95;;;1.10;;
18834;SDS011;9546;59.262;18.036;2022-09-09T12:35:27;2.17;;;0.90;;
18834;SDS011;9546;59.262;18.036;2022-09-09T12:37:58;1.27;;;0.90;;
18834;SDS011;9546;59.262;18.036;2022-09-09T12:40:26;4.53;;;1.10;;
18834;SDS011;9546;59.262;18.036;2022-09-09T12:42:57;1.45;;;1.05;;
18834;SDS011;9546;59.262;18.036;2022-09-09T12:45:40;1.55;;;0.70;;
18834;SDS011;9546;59.262;18.036;2022-09-09T12:48:08;1.45;;;0.80;;
18834;SDS011;9546;59.262;18.036;2022-09-09T12:50:37;1.70;;;0.80;;
18834;SDS011;9546;59.262;18.036;2022-09-09T12:53:08;1.00;;;0.90;;
18834;SDS011;9546;59.262;18.036;2022-09-09T12:55:36;1.58;;;0.90;;
18834;SDS011;9546;59.262;18.036;2022-09-09T12:58:04;3.28;;;0.90;;
18834;SDS011;9546;59.262;18.036;2022-09-09T13:00:32;2.78;;;1.02;;
18834;SDS011;9546;59.262;18.036;2022-09-09T13:03:03;1.55;;;1.08;;
18834;SDS011;9546;59.262;18.036;2022-09-09T13:05:45;2.65;;;1.10;;
18834;SDS011;9546;59.262;18.036;2022-09-09T13:28:22;2.65;;;0.80;;
18834;SDS011;9546;59.262;18.036;2022-09-09T13:30:57;1.27;;;0.90;;
18834;SDS011;9546;59.262;18.036;2022-09-09T13:33:29;3.08;;;1.05;;
18834;SDS011;9546;59.262;18.036;2022-09-09T13:35:57;1.35;;;0.95;;
18834;SDS011;9546;59.262;18.036;2022-09-09T13:38:25;1.70;;;0.95;;
18834;SDS011;9546;59.262;18.036;2022-09-09T13:40:54;3.85;;;1.02;;
18834;SDS011;9546;59.262;18.036;2022-09-09T13:43:26;3.22;;;1.08;;
18834;SDS011;9546;59.262;18.036;2022-09-09T13:45:54;5.75;;;1.25;;
18834;SDS011;9546;59.262;18.036;2022-09-09T13:48:21;1.70;;;0.80;;
18834;SDS011;9546;59.262;18.036;2022-09-09T13:50:53;2.88;;;0.90;;
18834;SDS011;9546;59.262;18.036;2022-09-09T13:53:20;1.75;;;0.80;;
18834;SDS011;9546;59.262;18.036;2022-09-09T13:55:47;2.92;;;1.23;;
18834;SDS011;9546;59.262;18.036;2022-09-09T13:58:16;1.15;;;1.05;;
18834;SDS011;9546;59.262;18.036;2022-09-09T14:00:48;2.05;;;0.95;;
18834;SDS011;9546;59.262;18.036;2022-09-09T14:03:15;3.65;;;0.98;;
18834;SDS011;9546;59.262;18.036;2022-09-09T14:05:43;2.28;;;0.82;;
18834;SDS011;9546;59.262;18.036;2022-09-09T14:08:15;3.08;;;0.95;;
18834;SDS011;9546;59.262;18.036;2022-09-09T14:10:42;2.15;;;1.25;;
18834;SDS011;9546;59.262;18.036;2022-09-09T14:13:09;2.58;;;1.50;;
18834;SDS011;9546;59.262;18.036;2022-09-09T14:15:37;1.73;;;1.20;;
18834;SDS011;9546;59.262;18.036;2022-09-09T14:18:06;2.03;;;1.00;;
18834;SDS011;9546;59.262;18.036;2022-09-09T14:20:32;2.05;;;1.40;;
18834;SDS011;9546;59.262;18.036;2022-09-09T14:23:00;1.65;;;1.30;;
18834;SDS011;9546;59.262;18.036;2022-09-09T14:25:27;3.35;;;1.20;;
18834;SDS011;9546;59.262;18.036;2022-09-09T14:27:55;3.60;;;1.00;;
18834;SDS011;9546;59.262;18.036;2022-09-09T14:30:24;3.45;;;1.02;;
18834;SDS011;9546;59.262;18.036;2022-09-09T14:32:54;3.72;;;1.10;;
18834;SDS011;9546;59.262;18.036;2022-09-09T14:35:24;4.03;;;1.17;;
18834;SDS011;9546;59.262;18.036;2022-09-09T14:37:51;2.03;;;1.15;;
18834;SDS011;9546;59.262;18.036;2022-09-09T14:40:21;2.25;;;1.23;;
18834;SDS011;9546;59.262;18.036;2022-09-09T14:42:50;1.83;;;0.80;;
18834;SDS011;9546;59.262;18.036;2022-09-09T14:45:18;2.45;;;1.08;;
18834;SDS011;9546;59.262;18.036;2022-09-09T14:47:48;1.38;;;1.10;;
18834;SDS011;9546;59.262;18.036;2022-09-09T14:50:19;2.17;;;1.00;;
18834;SDS011;9546;59.262;18.036;2022-09-09T14:52:47;2.55;;;1.02;;
18834;SDS011;9546;59.262;18.036;2022-09-09T14:55:14;1.10;;;0.90;;
18834;SDS011;9546;59.262;18.036;2022-09-09T14:57:41;2.40;;;0.90;;
18834;SDS011;9546;59.262;18.036;2022-09-09T15:00:09;2.90;;;1.00;;
18834;SDS011;9546;59.262;18.036;2022-09-09T15:02:42;2.08;;;1.10;;
18834;SDS011;9546;59.262;18.036;2022-09-09T15:05:13;3.00;;;1.13;;
18834;SDS011;9546;59.262;18.036;2022-09-09T15:07:49;1.17;;;0.90;;
18834;SDS011;9546;59.262;18.036;2022-09-09T15:28:51;1.08;;;0.80;;
18834;SDS011;9546;59.262;18.036;2022-09-09T15:31:19;1.75;;;0.90;;
18834;SDS011;9546;59.262;18.036;2022-09-09T15:33:46;2.40;;;0.98;;
18834;SDS011;9546;59.262;18.036;2022-09-09T15:36:14;1.27;;;1.05;;
18834;SDS011;9546;59.262;18.036;2022-09-09T15:38:41;1.17;;;1.02;;
18834;SDS011;9546;59.262;18.036;2022-09-09T15:41:13;1.27;;;1.05;;
18834;SDS011;9546;59.262;18.036;2022-09-09T15:43:43;1.52;;;1.10;;
18834;SDS011;9546;59.262;18.036;2022-09-09T15:46:23;3.13;;;1.13;;
18834;SDS011;9546;59.262;18.036;2022-09-09T15:48:53;2.58;;;1.20;;
18834;SDS011;9546;59.262;18.036;2022-09-09T15:51:25;2.92;;;1.15;;
18834;SDS011;9546;59.262;18.036;2022-09-09T15:53:54;3.08;;;1.20;;
18834;SDS011;9546;59.262;18.036;2022-09-09T15:56:21;3.40;;;1.20;;
18834;SDS011;9546;59.262;18.036;2022-09-09T15:58:49;4.55;;;1.20;;
18834;SDS011;9546;59.262;18.036;2022-09-09T16:01:17;1.65;;;0.90;;
18834;SDS011;9546;59.262;18.036;2022-09-09T16:03:45;2.55;;;0.88;;
18834;SDS011;9546;59.262;18.036;2022-09-09T16:06:16;0.88;;;0.88;;
18834;SDS011;9546;59.262;18.036;2022-09-09T16:08:44;3.75;;;1.30;;
18834;SDS011;9546;59.262;18.036;2022-09-09T16:11:15;1.17;;;0.90;;
18834;SDS011;9546;59.262;18.036;2022-09-09T16:13:45;1.08;;;0.98;;
18834;SDS011;9546;59.262;18.036;2022-09-09T16:16:25;2.45;;;1.00;;
18834;SDS011;9546;59.262;18.036;2022-09-09T16:18:59;4.97;;;1.20;;
18834;SDS011;9546;59.262;18.036;2022-09-09T16:21:30;1.83;;;0.90;;
18834;SDS011;9546;59.262;18.036;2022-09-09T16:23:58;2.42;;;1.30;;
18834;SDS011;9546;59.262;18.036;2022-09-09T16:26:35;2.58;;;1.05;;
18834;SDS011;9546;59.262;18.036;2022-09-09T16:29:14;2.15;;;1.20;;
18834;SDS011;9546;59.262;18.036;2022-09-09T16:31:44;1.90;;;0.93;;
18834;SDS011;9546;59.262;18.036;2022-09-09T16:34:16;2.40;;;1.00;;
18834;SDS011;9546;59.262;18.036;2022-09-09T16:36:44;3.92;;;1.30;;
18834;SDS011;9546;59.262;18.036;2022-09-09T16:39:15;2.20;;;0.90;;
18834;SDS011;9546;59.262;18.036;2022-09-09T16:41:50;2.42;;;1.10;;
18834;SDS011;9546;59.262;18.036;2022-09-09T16:44:20;2.30;;;1.10;;
18834;SDS011;9546;59.262;18.036;2022-09-09T16:46:48;5.43;;;1.42;;
18834;SDS011;9546;59.262;18.036;2022-09-09T16:49:19;1.48;;;1.17;;
18834;SDS011;9546;59.262;18.036;2022-09-09T16:51:52;2.65;;;0.93;;
18834;SDS011;9546;59.262;18.036;2022-09-09T16:54:19;2.30;;;0.80;;
18834;SDS011;9546;59.262;18.036;2022-09-09T16:56:47;2.42;;;1.02;;
18834;SDS011;9546;59.262;18.036;2022-09-09T16:59:14;2.03;;;0.90;;
18834;SDS011;9546;59.262;18.036;2022-09-09T17:01:50;2.30;;;1.17;;
18834;SDS011;9546;59.262;18.036;2022-09-09T17:04:44;1.75;;;0.93;;
18834;SDS011;9546;59.262;18.036;2022-09-09T17:07:12;1.02;;;0.80;;
18834;SDS011;9546;59.262;18.036;2022-09-09T17:28:56;2.85;;;1.20;;
18834;SDS011;9546;59.262;18.036;2022-09-09T17:31:24;2.72;;;1.25;;
18834;SDS011;9546;59.262;18.036;2022-09-09T17:33:53;4.10;;;1.20;;
18834;SDS011;9546;59.262;18.036;2022-09-09T17:36:20;4.32;;;1.10;;
18834;SDS011;9546;59.262;18.036;2022-09-09T17:38:49;2.47;;;1.38;;
18834;SDS011;9546;59.262;18.036;2022-09-09T17:41:16;2.80;;;1.35;;
18834;SDS011;9546;59.262;18.036;2022-09-09T17:43:46;3.28;;;1.15;;
18834;SDS011;9546;59.262;18.036;2022-09-09T17:46:18;2.83;;;1.20;;
18834;SDS011;9546;59.262;18.036;2022-09-09T17:48:46;2.50;;;1.40;;
18834;SDS011;9546;59.262;18.036;2022-09-09T17:51:15;2.92;;;1.45;;
18834;SDS011;9546;59.262;18.036;2022-09-09T17:53:46;1.88;;;1.50;;
18834;SDS011;9546;59.262;18.036;2022-09-09T17:56:17;3.78;;;1.50;;
18834;SDS011;9546;59.262;18.036;2022-09-09T17:58:48;6.47;;;1.63;;
18834;SDS011;9546;59.262;18.036;2022-09-09T18:01:16;2.85;;;1.60;;
18834;SDS011;9546;59.262;18.036;2022-09-09T18:03:45;5.13;;;2.10;;
18834;SDS011;9546;59.262;18.036;2022-09-09T18:06:21;1.95;;;1.40;;
18834;SDS011;9546;59.262;18.036;2022-09-09T18:08:50;1.58;;;1.35;;
18834;SDS011;9546;59.262;18.036;2022-09-09T18:11:20;7.13;;;1.83;;
18834;SDS011;9546;59.262;18.036;2022-09-09T18:13:47;2.92;;;1.48;;